createdAt,value
2019-01-12T00:00:40.657Z,7.70
2019-01-12T00:03:09.677Z,7.70
2019-01-12T00:05:39.841Z,7.70
2019-01-12T00:08:08.849Z,7.70
2019-01-12T00:10:37.955Z,7.70
2019-01-12T00:13:08.967Z,7.70
2019-01-12T00:15:37.707Z,7.70
2019-01-12T00:18:06.809Z,7.70
2019-01-12T00:20:35.806Z,7.70
2019-01-12T00:23:04.850Z,7.80
2019-01-12T00:25:34.024Z,7.80
2019-01-12T00:28:03.000Z,7.80
2019-01-12T00:30:32.046Z,7.80
2019-01-12T00:33:03.107Z,7.80
2019-01-12T00:35:32.057Z,7.80
2019-01-12T00:38:01.145Z,7.80
2019-01-12T00:40:30.155Z,7.80
2019-01-12T00:43:01.320Z,7.80
2019-01-12T00:45:30.631Z,7.80
2019-01-12T00:47:59.839Z,7.80
2019-01-12T00:50:29.633Z,7.80
2019-01-12T00:52:58.855Z,7.80
2019-01-12T00:55:28.091Z,7.80
2019-01-12T00:57:57.327Z,7.80
2019-01-12T01:00:26.655Z,7.80
2019-01-12T01:02:55.834Z,7.80
2019-01-12T01:05:25.028Z,7.80
2019-01-12T01:07:54.158Z,7.80
2019-01-12T01:10:23.616Z,7.90
2019-01-12T01:12:52.740Z,7.90
2019-01-12T01:15:23.419Z,7.90
2019-01-12T01:17:52.572Z,7.80
2019-01-12T01:20:21.888Z,7.80
2019-01-12T01:22:51.062Z,7.80
2019-01-12T01:25:20.205Z,7.80
2019-01-12T01:27:49.359Z,7.80
2019-01-12T01:30:19.803Z,7.80
2019-01-12T01:32:48.974Z,7.80
2019-01-12T01:35:18.149Z,7.80
2019-01-12T01:37:47.275Z,7.90
2019-01-12T01:40:17.921Z,7.90
2019-01-12T01:42:47.179Z,7.80
2019-01-12T01:45:17.191Z,7.80
2019-01-12T01:47:46.356Z,7.80
2019-01-12T01:50:16.123Z,7.90
2019-01-12T01:52:45.383Z,7.90
2019-01-12T01:55:15.082Z,7.90
2019-01-12T01:57:45.155Z,7.90
2019-01-12T02:00:16.609Z,7.90
2019-01-12T02:02:45.993Z,7.90
2019-01-12T02:05:15.190Z,7.90
2019-01-12T02:07:44.438Z,7.90
2019-01-12T02:10:16.749Z,7.90
2019-01-12T02:12:45.866Z,7.90
2019-01-12T02:15:15.578Z,7.90
2019-01-12T02:17:44.714Z,7.90
2019-01-12T02:20:14.844Z,7.90
2019-01-12T02:22:44.649Z,7.90
2019-01-12T02:25:14.144Z,7.80
2019-01-12T02:27:43.453Z,7.80
2019-01-12T02:30:19.038Z,7.80
2019-01-12T02:32:48.216Z,7.80
2019-01-12T02:35:17.473Z,7.80
2019-01-12T02:37:46.670Z,7.80
2019-01-12T02:40:15.857Z,7.80
2019-01-12T02:42:45.103Z,7.80
2019-01-12T02:45:14.383Z,7.80
2019-01-12T02:47:44.719Z,7.80
2019-01-12T02:50:14.119Z,7.80
2019-01-12T02:52:43.371Z,7.80
2019-01-12T02:55:12.599Z,7.80
2019-01-12T02:57:41.860Z,7.80
2019-01-12T03:00:14.531Z,7.80
2019-01-12T03:02:43.771Z,7.80
2019-01-12T03:05:13.453Z,7.80
2019-01-12T03:07:42.739Z,7.80
2019-01-12T03:10:13.337Z,7.80
2019-01-12T03:12:42.588Z,7.80
2019-01-12T03:15:14.301Z,7.80
2019-01-12T03:17:43.528Z,7.80
2019-01-12T03:20:14.523Z,7.80
2019-01-12T03:22:43.761Z,7.80
2019-01-12T03:25:18.310Z,7.80
2019-01-12T03:27:43.941Z,7.80
2019-01-12T03:30:19.953Z,7.80
2019-01-12T03:32:51.619Z,7.90
2019-01-12T03:35:20.801Z,7.80
2019-01-12T03:37:49.951Z,7.90
2019-01-12T03:40:22.798Z,7.80
2019-01-12T03:42:52.001Z,7.80
2019-01-12T03:45:21.417Z,7.80
2019-01-12T03:47:50.821Z,7.80
2019-01-12T03:50:20.123Z,7.80
2019-01-12T03:52:49.284Z,7.80
2019-01-12T03:55:25.383Z,7.80
2019-01-12T03:57:49.463Z,7.70
2019-01-12T04:00:23.491Z,7.70
2019-01-12T04:02:52.766Z,7.70
2019-01-12T04:05:22.007Z,7.70
2019-01-12T04:07:51.251Z,7.70
2019-01-12T04:10:20.404Z,7.70
2019-01-12T04:12:49.656Z,7.60
2019-01-12T04:15:19.014Z,7.60
2019-01-12T04:17:48.387Z,7.60
2019-01-12T04:20:19.304Z,7.60
2019-01-12T04:22:48.415Z,7.60
2019-01-12T04:25:17.722Z,7.60
2019-01-12T04:27:46.924Z,7.60
2019-01-12T04:30:19.617Z,7.50
2019-01-12T04:32:50.347Z,7.50
2019-01-12T04:35:21.004Z,7.50
2019-01-12T04:37:52.135Z,7.50
2019-01-12T04:40:21.226Z,7.50
2019-01-12T04:42:51.819Z,7.50
2019-01-12T04:45:23.442Z,7.50
2019-01-12T04:47:55.090Z,7.50
2019-01-12T04:50:24.318Z,7.50
2019-01-12T04:52:53.518Z,7.50
2019-01-12T04:55:22.776Z,7.40
2019-01-12T04:57:53.092Z,7.40
2019-01-12T05:00:23.030Z,7.40
2019-01-12T05:02:53.417Z,7.40
2019-01-12T05:05:22.683Z,7.40
2019-01-12T05:07:51.777Z,7.40
2019-01-12T05:10:21.026Z,7.40
2019-01-12T05:12:50.251Z,7.40
2019-01-12T05:15:19.557Z,7.40
2019-01-12T05:17:48.752Z,7.40
2019-01-12T05:20:21.609Z,7.50
2019-01-12T05:22:51.894Z,7.40
2019-01-12T05:25:21.032Z,7.40
2019-01-12T05:27:50.275Z,7.50
2019-01-12T05:30:23.127Z,7.40
2019-01-12T05:32:52.477Z,7.40
2019-01-12T05:35:21.947Z,7.40
2019-01-12T05:37:51.262Z,7.40
2019-01-12T05:40:22.534Z,7.50
2019-01-12T05:42:52.806Z,7.50
2019-01-12T05:45:22.302Z,7.50
2019-01-12T05:47:52.637Z,7.50
2019-01-12T05:50:22.090Z,7.50
2019-01-12T05:52:52.151Z,7.50
2019-01-12T05:55:21.311Z,7.50
2019-01-12T05:57:50.559Z,7.50
2019-01-12T06:00:21.563Z,7.50
2019-01-12T06:02:50.675Z,7.60
2019-01-12T06:05:19.885Z,7.60
2019-01-12T06:07:49.231Z,7.60
2019-01-12T06:10:18.409Z,7.60
2019-01-12T06:12:47.569Z,7.60
2019-01-12T06:15:17.370Z,7.60
2019-01-12T06:17:46.524Z,7.70
2019-01-12T06:20:16.380Z,7.70
2019-01-12T06:22:45.583Z,7.70
2019-01-12T06:25:15.280Z,7.70
2019-01-12T06:27:46.605Z,7.70
2019-01-12T06:30:20.196Z,7.80
2019-01-12T06:32:49.349Z,7.80
2019-01-12T06:35:18.602Z,7.80
2019-01-12T06:37:47.844Z,7.80
2019-01-12T06:40:18.939Z,7.80
2019-01-12T06:42:48.373Z,7.80
2019-01-12T06:45:18.289Z,7.80
2019-01-12T06:47:47.640Z,7.80
2019-01-12T06:50:18.442Z,7.90
2019-01-12T06:52:47.672Z,7.90
2019-01-12T06:55:16.903Z,7.90
2019-01-12T06:57:46.332Z,7.90
2019-01-12T07:00:18.018Z,7.90
2019-01-12T07:02:48.346Z,7.90
2019-01-12T07:05:17.763Z,7.90
2019-01-12T07:07:46.918Z,7.90
2019-01-12T07:10:18.850Z,7.90
2019-01-12T07:12:49.617Z,7.90
2019-01-12T07:15:18.802Z,7.90
2019-01-12T07:17:50.004Z,8.00
2019-01-12T07:20:22.043Z,8.00
2019-01-12T07:22:52.306Z,7.90
2019-01-12T07:25:21.514Z,8.00
2019-01-12T07:27:50.624Z,8.00
2019-01-12T07:30:21.753Z,8.00
2019-01-12T07:32:50.934Z,8.00
2019-01-12T07:35:21.413Z,8.00
2019-01-12T07:37:50.617Z,8.00
2019-01-12T07:40:19.753Z,8.00
2019-01-12T07:42:49.252Z,8.00
2019-01-12T07:45:18.387Z,8.10
2019-01-12T07:47:47.832Z,8.10
2019-01-12T07:50:17.076Z,8.10
2019-01-12T07:52:46.255Z,8.10
2019-01-12T07:55:15.403Z,8.10
2019-01-12T07:57:44.565Z,8.10
2019-01-12T08:00:16.731Z,8.10
2019-01-12T08:02:46.058Z,8.10
2019-01-12T08:05:16.135Z,8.10
2019-01-12T08:07:45.255Z,8.20
2019-01-12T08:10:17.175Z,8.20
2019-01-12T08:12:46.449Z,8.20
2019-01-12T08:15:17.489Z,8.20
2019-01-12T08:17:46.652Z,8.20
2019-01-12T08:20:16.635Z,8.30
2019-01-12T08:22:45.799Z,8.30
2019-01-12T08:25:14.939Z,8.30
2019-01-12T08:27:45.211Z,8.30
2019-01-12T08:30:16.611Z,8.30
2019-01-12T08:32:45.840Z,8.30
2019-01-12T08:35:15.886Z,8.30
2019-01-12T08:37:45.037Z,8.30
2019-01-12T08:40:14.527Z,8.30
2019-01-12T08:42:43.679Z,8.30
2019-01-12T08:45:13.072Z,8.40
2019-01-12T08:47:42.406Z,8.40
2019-01-12T08:50:14.420Z,8.30
2019-01-12T08:52:43.734Z,8.40
2019-01-12T08:55:13.150Z,8.40
2019-01-12T08:57:42.351Z,8.40
2019-01-12T09:00:22.498Z,8.40
2019-01-12T09:02:53.019Z,8.40
2019-01-12T09:05:22.214Z,8.40
2019-01-12T09:07:51.545Z,8.40
2019-01-12T09:10:22.029Z,8.40
2019-01-12T09:12:51.451Z,8.40
2019-01-12T09:15:21.133Z,8.40
2019-01-12T09:17:51.150Z,8.40
2019-01-12T09:20:20.962Z,8.30
2019-01-12T09:22:50.680Z,8.30
2019-01-12T09:25:21.774Z,8.40
2019-01-12T09:27:50.703Z,8.30
2019-01-12T09:30:23.210Z,8.30
2019-01-12T09:32:52.683Z,8.30
2019-01-12T09:35:21.812Z,8.30
2019-01-12T09:37:51.087Z,8.20
2019-01-12T09:40:21.605Z,8.30
2019-01-12T09:42:51.274Z,8.30
2019-01-12T09:45:20.507Z,8.30
2019-01-12T09:47:49.685Z,8.20
2019-01-12T09:50:20.037Z,8.30
2019-01-12T09:52:49.387Z,8.30
2019-01-12T09:55:21.007Z,8.30
2019-01-12T09:57:50.201Z,8.30
2019-01-12T10:00:21.807Z,8.30
2019-01-12T10:02:50.906Z,8.30
2019-01-12T10:05:20.284Z,8.30
2019-01-12T10:07:49.375Z,8.30
2019-01-12T10:10:19.938Z,8.30
2019-01-12T10:12:49.356Z,8.30
2019-01-12T10:15:18.506Z,8.40
2019-01-12T10:17:49.506Z,8.30
2019-01-12T10:20:19.527Z,8.40
2019-01-12T10:22:48.815Z,8.40
2019-01-12T10:25:18.158Z,8.40
2019-01-12T10:27:47.834Z,8.40
2019-01-12T10:30:22.083Z,8.40
2019-01-12T10:32:51.276Z,8.40
2019-01-12T10:35:20.487Z,8.40
2019-01-12T10:37:49.624Z,8.40
2019-01-12T10:40:19.452Z,8.50
2019-01-12T10:42:48.638Z,8.50
2019-01-12T10:45:20.285Z,8.50
2019-01-12T10:47:49.834Z,8.50
2019-01-12T10:50:29.443Z,8.50
2019-01-12T10:52:58.539Z,8.60
2019-01-12T10:55:28.751Z,8.60
2019-01-12T10:57:58.410Z,8.60
2019-01-12T11:00:30.666Z,8.60
2019-01-12T11:03:01.312Z,8.60
2019-01-12T11:05:30.982Z,8.60
2019-01-12T11:08:00.433Z,8.60
2019-01-12T11:10:30.493Z,8.70
2019-01-12T11:13:02.099Z,8.70
2019-01-12T11:15:31.310Z,8.70
2019-01-12T11:18:00.538Z,8.70
2019-01-12T11:20:30.843Z,8.80
2019-01-12T11:23:00.071Z,8.80
2019-01-12T11:25:33.585Z,8.80
2019-01-12T11:28:01.093Z,8.80
2019-01-12T11:30:31.281Z,8.80
2019-01-12T11:33:00.449Z,8.90
2019-01-12T11:35:29.649Z,8.80
2019-01-12T11:37:58.787Z,8.90
2019-01-12T11:40:27.899Z,8.90
2019-01-12T11:42:56.992Z,8.90
2019-01-12T11:45:26.714Z,8.90
2019-01-12T11:47:55.909Z,9.00
2019-01-12T11:50:25.089Z,9.00
2019-01-12T11:52:54.212Z,9.00
2019-01-12T11:55:23.410Z,8.90
2019-01-12T11:57:52.534Z,9.00
2019-01-12T12:00:24.006Z,9.00
2019-01-12T12:02:53.231Z,9.00
2019-01-12T12:05:22.403Z,9.00
2019-01-12T12:07:52.974Z,9.00
2019-01-12T12:10:22.605Z,9.10
2019-01-12T12:12:51.763Z,9.10
2019-01-12T12:15:21.735Z,9.10
2019-01-12T12:17:50.837Z,9.10
2019-01-12T12:20:21.875Z,9.10
2019-01-12T12:22:51.319Z,9.10
2019-01-12T12:25:20.465Z,9.20
2019-01-12T12:27:49.679Z,9.20
2019-01-12T12:30:24.334Z,9.30
2019-01-12T12:32:53.472Z,9.30
2019-01-12T12:35:22.565Z,9.30
2019-01-12T12:37:52.723Z,9.40
2019-01-12T12:40:22.569Z,9.40
2019-01-12T12:42:53.141Z,9.40
2019-01-12T12:45:25.547Z,9.40
2019-01-12T12:47:54.703Z,9.50
2019-01-12T12:50:23.887Z,9.60
2019-01-12T12:52:53.112Z,9.60
2019-01-12T12:55:22.212Z,9.60
2019-01-12T12:57:51.328Z,9.60
2019-01-12T13:00:22.108Z,9.60
2019-01-12T13:02:51.254Z,9.60
2019-01-12T13:05:20.383Z,9.60
2019-01-12T13:07:49.524Z,9.60
2019-01-12T13:10:22.404Z,9.60
2019-01-12T13:12:51.534Z,9.60
2019-01-12T13:15:22.303Z,9.60
2019-01-12T13:17:51.408Z,9.60
2019-01-12T13:20:20.927Z,9.60
2019-01-12T13:22:52.412Z,9.50
2019-01-12T13:25:21.514Z,9.50
2019-01-12T13:27:50.772Z,9.50
2019-01-12T13:30:25.182Z,9.50
2019-01-12T13:32:54.338Z,9.60
2019-01-12T13:35:23.493Z,9.60
2019-01-12T13:37:52.620Z,9.60
2019-01-12T13:40:24.548Z,9.60
2019-01-12T13:42:53.752Z,9.60
2019-01-12T13:45:23.006Z,9.60
2019-01-12T13:47:52.321Z,9.60
2019-01-12T13:50:24.556Z,9.60
2019-01-12T13:52:54.682Z,9.60
2019-01-12T13:55:23.860Z,9.70
2019-01-12T13:57:52.988Z,9.70
2019-01-12T14:00:24.398Z,9.70
2019-01-12T14:02:53.664Z,9.70
2019-01-12T14:05:22.762Z,9.80
2019-01-12T14:07:56.527Z,9.70
2019-01-12T14:10:24.164Z,9.80
2019-01-12T14:12:53.386Z,9.80
2019-01-12T14:15:22.733Z,9.80
2019-01-12T14:17:51.934Z,9.90
2019-01-12T14:20:23.318Z,10.00
2019-01-12T14:22:52.522Z,10.00
2019-01-12T14:25:21.985Z,9.90
2019-01-12T14:27:54.891Z,10.00
2019-01-12T14:30:23.066Z,10.00
2019-01-12T14:32:52.377Z,9.90
2019-01-12T14:35:23.178Z,9.90
2019-01-12T14:37:52.703Z,9.90
2019-01-12T14:40:21.850Z,9.90
2019-01-12T14:42:50.970Z,9.80
2019-01-12T14:45:25.403Z,9.80
2019-01-12T14:47:54.603Z,9.80
2019-01-12T14:50:23.788Z,9.80
2019-01-12T14:52:52.979Z,9.70
2019-01-12T14:55:22.467Z,9.70
2019-01-12T14:57:51.658Z,9.70
2019-01-12T15:00:22.829Z,9.70
2019-01-12T15:02:52.164Z,9.70
2019-01-12T15:05:26.015Z,9.70
2019-01-12T15:07:55.047Z,9.60
2019-01-12T15:10:24.084Z,9.70
2019-01-12T15:12:55.436Z,9.60
2019-01-12T15:15:24.450Z,9.60
2019-01-12T15:17:53.501Z,9.60
2019-01-12T15:20:24.361Z,9.60
2019-01-12T15:22:53.389Z,9.60
2019-01-12T15:25:22.441Z,9.50
2019-01-12T15:27:51.514Z,9.50
2019-01-12T15:30:22.618Z,9.40
2019-01-12T15:32:51.623Z,9.40
2019-01-12T15:35:21.482Z,9.30
2019-01-12T15:37:50.554Z,9.20
2019-01-12T15:40:22.058Z,9.20
2019-01-12T15:42:51.118Z,9.20
2019-01-12T15:45:23.383Z,9.10
2019-01-12T15:47:53.512Z,9.10
2019-01-12T15:50:24.305Z,9.10
2019-01-12T15:52:53.483Z,9.10
2019-01-12T15:55:22.786Z,9.10
2019-01-12T15:57:53.124Z,9.10
2019-01-12T16:00:24.367Z,9.10
2019-01-12T16:02:53.433Z,9.00
2019-01-12T16:05:22.442Z,9.00
2019-01-12T16:07:51.468Z,9.10
2019-01-12T16:10:20.616Z,9.10
2019-01-12T16:12:49.618Z,9.10
2019-01-12T16:15:20.775Z,9.10
2019-01-12T16:17:52.102Z,9.00
2019-01-12T16:20:28.929Z,9.00
2019-01-12T16:22:57.970Z,9.00
2019-01-12T16:25:26.956Z,9.00
2019-01-12T16:27:55.979Z,9.00
2019-01-12T16:30:25.021Z,9.10
2019-01-12T16:32:54.148Z,9.10
2019-01-12T16:35:23.182Z,9.10
2019-01-12T16:37:52.410Z,9.10
2019-01-12T16:40:23.960Z,9.10
2019-01-12T16:42:53.121Z,9.10
2019-01-12T16:45:22.158Z,9.10
2019-01-12T16:47:51.207Z,9.10
2019-01-12T16:50:20.253Z,9.10
2019-01-12T16:52:49.341Z,9.00
2019-01-12T16:55:18.456Z,9.00
2019-01-12T16:57:47.773Z,9.00
2019-01-12T17:00:24.201Z,9.00
2019-01-12T17:02:53.382Z,9.00
2019-01-12T17:05:24.292Z,9.00
2019-01-12T17:07:53.411Z,9.00
2019-01-12T17:10:22.724Z,9.00
2019-01-12T17:12:51.943Z,9.00
2019-01-12T17:15:22.437Z,9.00
2019-01-12T17:17:51.595Z,9.00
2019-01-12T17:20:26.073Z,8.90
2019-01-12T17:23:01.093Z,8.90
2019-01-12T17:25:30.169Z,8.90
2019-01-12T17:27:59.192Z,8.90
2019-01-12T17:30:28.324Z,8.90
2019-01-12T17:32:57.517Z,8.90
2019-01-12T17:35:29.441Z,8.90
2019-01-12T17:37:57.754Z,8.90
2019-01-12T17:40:26.816Z,8.90
2019-01-12T17:42:55.837Z,8.90
2019-01-12T17:45:25.800Z,8.90
2019-01-12T17:47:54.827Z,8.90
2019-01-12T17:50:27.054Z,9.00
2019-01-12T17:52:56.539Z,9.00
2019-01-12T17:55:26.724Z,9.00
2019-01-12T17:57:55.749Z,9.00
2019-01-12T18:00:31.756Z,9.00
2019-01-12T18:03:00.798Z,9.10
2019-01-12T18:05:29.769Z,9.10
2019-01-12T18:07:59.066Z,9.00
2019-01-12T18:10:28.114Z,9.10
2019-01-12T18:13:05.037Z,9.00
2019-01-12T18:15:34.895Z,9.00
2019-01-12T18:18:04.061Z,9.00
2019-01-12T18:20:33.096Z,9.00
2019-01-12T18:23:02.172Z,9.00
2019-01-12T18:25:32.362Z,9.10
2019-01-12T18:28:01.651Z,9.10
2019-01-12T18:30:31.818Z,9.10
2019-01-12T18:33:03.248Z,9.10
2019-01-12T18:35:33.752Z,9.10
2019-01-12T18:38:02.934Z,9.10
2019-01-12T18:40:32.012Z,9.10
2019-01-12T18:43:09.966Z,9.00
2019-01-12T18:45:40.626Z,9.00
2019-01-12T18:48:09.606Z,9.00
2019-01-12T18:50:38.657Z,9.00
2019-01-12T18:53:07.697Z,9.00
2019-01-12T18:55:36.904Z,9.00
2019-01-12T18:58:05.916Z,9.00
2019-01-12T19:00:34.957Z,9.00
2019-01-12T19:03:04.490Z,9.00
2019-01-12T19:05:33.811Z,9.00
2019-01-12T19:08:02.883Z,9.00
2019-01-12T19:10:33.239Z,9.00
2019-01-12T19:13:02.297Z,9.00
2019-01-12T19:15:31.954Z,9.00
2019-01-12T19:18:00.989Z,9.00
2019-01-12T19:20:30.209Z,9.00
2019-01-12T19:22:59.425Z,9.00
2019-01-12T19:25:28.441Z,9.00
2019-01-12T19:27:57.458Z,9.00
2019-01-12T19:30:26.496Z,9.00
2019-01-12T19:32:55.489Z,9.00
2019-01-12T19:35:25.565Z,9.00
2019-01-12T19:37:54.544Z,9.00
2019-01-12T19:40:24.996Z,9.00
2019-01-12T19:42:54.040Z,9.00
2019-01-12T19:45:25.788Z,9.00
2019-01-12T19:47:54.867Z,9.00
2019-01-12T19:50:27.866Z,9.00
2019-01-12T19:52:57.204Z,9.00
2019-01-12T19:55:27.334Z,9.00
2019-01-12T19:57:57.105Z,9.00
2019-01-12T20:00:31.677Z,9.00
2019-01-12T20:03:01.558Z,9.00
2019-01-12T20:05:33.955Z,9.10
2019-01-12T20:08:03.909Z,9.10
2019-01-12T20:10:35.993Z,9.10
2019-01-12T20:13:10.004Z,9.10
2019-01-12T20:15:41.026Z,9.10
2019-01-12T20:18:10.200Z,9.10
2019-01-12T20:20:43.722Z,9.10
2019-01-12T20:23:13.436Z,9.10
2019-01-12T20:25:43.176Z,9.10
2019-01-12T20:28:17.784Z,9.20
2019-01-12T20:31:30.091Z,9.10
2019-01-12T20:34:14.064Z,9.20
2019-01-12T20:37:09.659Z,9.10
2019-01-12T20:40:12.166Z,9.10
2019-01-12T20:43:02.097Z,9.10
2019-01-12T20:45:43.159Z,9.10
2019-01-12T20:48:28.218Z,9.10
2019-01-12T20:51:21.791Z,9.10
2019-01-12T20:54:29.813Z,9.10
2019-01-12T20:57:55.090Z,9.10
2019-01-12T21:01:06.283Z,9.10
2019-01-12T21:03:55.391Z,9.10
2019-01-12T21:07:16.142Z,9.10
2019-01-12T21:10:09.770Z,9.10
2019-01-12T21:13:10.970Z,9.10
2019-01-12T21:15:44.802Z,9.10
2019-01-12T21:18:13.851Z,9.10
2019-01-12T21:20:43.027Z,9.10
2019-01-12T21:23:12.042Z,9.10
2019-01-12T21:25:41.053Z,9.10
2019-01-12T21:28:11.741Z,9.20
2019-01-12T21:30:40.801Z,9.10
2019-01-12T21:33:10.007Z,9.10
2019-01-12T21:35:40.109Z,9.20
2019-01-12T21:38:10.670Z,9.10
2019-01-12T21:40:39.758Z,9.10
2019-01-12T21:43:08.773Z,9.20
2019-01-12T21:45:37.722Z,9.20
2019-01-12T21:48:07.744Z,9.20
2019-01-12T21:50:36.762Z,9.20
2019-01-12T21:53:05.818Z,9.20
2019-01-12T21:55:34.854Z,9.20
2019-01-12T21:58:04.118Z,9.20
2019-01-12T22:00:33.197Z,9.30
2019-01-12T22:03:02.247Z,9.20
2019-01-12T22:05:31.509Z,9.30
2019-01-12T22:08:02.347Z,9.30
2019-01-12T22:10:31.545Z,9.20
2019-01-12T22:13:00.564Z,9.20
2019-01-12T22:15:29.689Z,9.20
2019-01-12T22:17:58.743Z,9.20
2019-01-12T22:20:27.802Z,9.20
2019-01-12T22:22:56.958Z,9.20
2019-01-12T22:25:26.160Z,9.20
2019-01-12T22:27:55.294Z,9.20
2019-01-12T22:30:24.444Z,9.20
2019-01-12T22:32:53.486Z,9.20
2019-01-12T22:35:22.522Z,9.20
2019-01-12T22:37:51.524Z,9.20
2019-01-12T22:40:20.989Z,9.20
2019-01-12T22:42:50.129Z,9.20
2019-01-12T22:45:19.205Z,9.20
2019-01-12T22:47:51.350Z,9.20
2019-01-12T22:50:20.459Z,9.20
2019-01-12T22:52:49.558Z,9.10
2019-01-12T22:55:18.573Z,9.10
2019-01-12T22:57:47.583Z,9.10
2019-01-12T23:00:33.159Z,9.10
2019-01-12T23:03:02.185Z,9.10
2019-01-12T23:05:31.292Z,9.10
2019-01-12T23:08:02.632Z,9.10
2019-01-12T23:10:33.075Z,9.10
2019-01-12T23:13:02.969Z,9.10
2019-01-12T23:15:31.988Z,9.10
2019-01-12T23:18:01.084Z,9.10
2019-01-12T23:20:30.326Z,9.10
2019-01-12T23:22:59.284Z,9.10
2019-01-12T23:25:28.570Z,9.10
2019-01-12T23:27:57.714Z,9.10
2019-01-12T23:30:28.318Z,9.10
2019-01-12T23:32:57.366Z,9.10
2019-01-12T23:35:29.572Z,9.10
2019-01-12T23:38:02.435Z,9.10
2019-01-12T23:40:31.600Z,9.10
2019-01-12T23:43:05.997Z,9.10
2019-01-12T23:45:34.933Z,9.10
2019-01-12T23:48:04.099Z,9.10
2019-01-12T23:50:33.184Z,9.20
2019-01-12T23:53:02.256Z,9.10
2019-01-12T23:55:31.310Z,9.10
2019-01-12T23:58:00.432Z,9.10
